createdAt,value
2017-12-15T00:00:24.889Z,78.19
2017-12-15T00:01:24.898Z,78.05
2017-12-15T00:02:24.914Z,78.05
2017-12-15T00:03:24.646Z,78.15
2017-12-15T00:04:24.932Z,78.05
2017-12-15T00:05:24.945Z,78.15
2017-12-15T00:06:24.953Z,78.05
2017-12-15T00:07:24.688Z,78.15
2017-12-15T00:08:24.980Z,78.05
2017-12-15T00:09:24.986Z,78.05
2017-12-15T00:10:24.998Z,78.05
2017-12-15T00:11:25.059Z,78.05
2017-12-15T00:12:25.019Z,78.15
2017-12-15T00:13:25.036Z,78.15
2017-12-15T00:14:25.039Z,78.34
2017-12-15T00:15:25.052Z,78.24
2017-12-15T00:16:25.061Z,78.15
2017-12-15T00:17:25.080Z,78.05
2017-12-15T00:18:25.085Z,78.05
2017-12-15T00:19:25.092Z,78.05
2017-12-15T00:20:25.105Z,78.05
2017-12-15T00:21:25.169Z,78.34
2017-12-15T00:22:25.132Z,78.24
2017-12-15T00:23:24.864Z,78.15
2017-12-15T00:24:25.159Z,78.15
2017-12-15T00:25:25.157Z,78.24
2017-12-15T00:26:25.175Z,78.05
2017-12-15T00:27:25.185Z,77.96
2017-12-15T00:28:24.916Z,78.15
2017-12-15T00:29:24.927Z,78.05
2017-12-15T00:30:24.938Z,78.15
2017-12-15T00:31:25.225Z,78.15
2017-12-15T00:32:25.235Z,78.24
2017-12-15T00:33:25.250Z,77.96
2017-12-15T00:34:25.268Z,78.05
2017-12-15T00:35:24.993Z,78.15
2017-12-15T00:36:25.280Z,78.15
2017-12-15T00:37:25.306Z,77.96
2017-12-15T00:38:25.302Z,78.05
2017-12-15T00:39:25.311Z,78.53
2017-12-15T00:40:25.321Z,78.62
2017-12-15T00:41:25.603Z,78.15
2017-12-15T00:42:25.346Z,78.05
2017-12-15T00:43:25.081Z,78.72
2017-12-15T00:44:25.365Z,78.72
2017-12-15T00:45:25.100Z,78.43
2017-12-15T00:46:25.387Z,78.53
2017-12-15T00:47:25.397Z,78.43
2017-12-15T00:48:25.414Z,78.34
2017-12-15T00:49:25.419Z,78.72
2017-12-15T00:50:25.433Z,78.72
2017-12-15T00:51:25.491Z,78.05
2017-12-15T00:52:25.454Z,78.24
2017-12-15T00:53:25.463Z,78.15
2017-12-15T00:54:25.476Z,78.62
2017-12-15T00:55:25.209Z,77.96
2017-12-15T00:56:25.219Z,78.43
2017-12-15T00:57:25.578Z,78.43
2017-12-15T00:58:25.517Z,78.34
2017-12-15T00:59:25.527Z,78.72
2017-12-15T01:00:25.541Z,78.24
2017-12-15T01:01:25.602Z,78.24
2017-12-15T01:02:25.285Z,78.53
2017-12-15T01:03:25.587Z,78.24
2017-12-15T01:04:25.306Z,78.53
2017-12-15T01:05:25.595Z,78.34
2017-12-15T01:06:25.329Z,78.24
2017-12-15T01:07:25.618Z,78.24
2017-12-15T01:08:25.348Z,78.24
2017-12-15T01:09:25.639Z,78.24
2017-12-15T01:10:25.368Z,78.24
2017-12-15T01:11:25.657Z,78.53
2017-12-15T01:12:25.674Z,78.34
2017-12-15T01:13:25.681Z,78.81
2017-12-15T01:14:25.420Z,78.43
2017-12-15T01:15:25.704Z,78.72
2017-12-15T01:16:25.711Z,78.43
2017-12-15T01:17:25.731Z,78.05
2017-12-15T01:18:25.459Z,78.72
2017-12-15T01:19:25.746Z,78.72
2017-12-15T01:20:25.752Z,78.53
2017-12-15T01:21:25.769Z,79
2017-12-15T01:22:25.786Z,78.81
2017-12-15T01:23:25.786Z,78.72
2017-12-15T01:24:25.804Z,78.91
2017-12-15T01:25:25.807Z,78.91
2017-12-15T01:26:25.818Z,78.62
2017-12-15T01:27:25.829Z,78.62
2017-12-15T01:28:25.844Z,78.72
2017-12-15T01:29:25.574Z,78.81
2017-12-15T01:30:25.860Z,78.81
2017-12-15T01:31:25.883Z,78.81
2017-12-15T01:32:25.891Z,78.91
2017-12-15T01:33:25.952Z,79
2017-12-15T01:34:25.905Z,78.81
2017-12-15T01:35:25.929Z,78.91
2017-12-15T01:36:25.648Z,79
2017-12-15T01:37:25.939Z,78.91
2017-12-15T01:38:25.948Z,78.53
2017-12-15T01:39:25.959Z,78.43
2017-12-15T01:40:25.971Z,78.43
2017-12-15T01:41:26.161Z,78.81
2017-12-15T01:42:25.996Z,78.72
2017-12-15T01:43:26.004Z,78.62
2017-12-15T01:44:26.011Z,78.81
2017-12-15T01:45:26.023Z,78.81
2017-12-15T01:46:26.033Z,78.62
2017-12-15T01:47:25.767Z,78.81
2017-12-15T01:48:26.055Z,78.62
2017-12-15T01:49:25.795Z,78.62
2017-12-15T01:50:26.074Z,78.62
2017-12-15T01:51:25.808Z,78.62
2017-12-15T01:52:26.096Z,78.62
2017-12-15T01:53:26.108Z,78.81
2017-12-15T01:54:26.119Z,78.72
2017-12-15T01:55:26.133Z,78.91
2017-12-15T01:56:26.142Z,78.62
2017-12-15T01:57:26.149Z,78.81
2017-12-15T01:58:25.885Z,78.72
2017-12-15T01:59:26.171Z,78.62
2017-12-15T02:00:25.906Z,78.91
2017-12-15T02:01:26.193Z,78.81
2017-12-15T02:02:25.977Z,78.53
2017-12-15T02:03:26.214Z,78.53
2017-12-15T02:04:26.223Z,78.81
2017-12-15T02:05:26.235Z,78.91
2017-12-15T02:06:26.243Z,79.1
2017-12-15T02:07:26.254Z,78.53
2017-12-15T02:08:26.274Z,78.62
2017-12-15T02:09:25.999Z,78.43
2017-12-15T02:10:26.341Z,78.72
2017-12-15T02:11:26.301Z,78.72
2017-12-15T02:12:26.313Z,78.72
2017-12-15T02:13:26.320Z,79.28
2017-12-15T02:14:26.055Z,79.47
2017-12-15T02:15:26.065Z,78.81
2017-12-15T02:16:26.362Z,78.81
2017-12-15T02:17:26.137Z,78.72
2017-12-15T02:18:26.372Z,79.47
2017-12-15T02:19:26.383Z,78.91
2017-12-15T02:20:26.394Z,79.47
2017-12-15T02:21:26.410Z,79.1
2017-12-15T02:22:26.418Z,79.1
2017-12-15T02:23:26.428Z,79.28
2017-12-15T02:24:26.437Z,79.1
2017-12-15T02:25:26.181Z,79
2017-12-15T02:26:26.460Z,79.19
2017-12-15T02:27:26.472Z,79.19
2017-12-15T02:28:26.535Z,79.28
2017-12-15T02:29:26.492Z,78.91
2017-12-15T02:30:26.501Z,78.91
2017-12-15T02:31:26.242Z,78.81
2017-12-15T02:32:26.537Z,78.91
2017-12-15T02:33:26.534Z,79.47
2017-12-15T02:34:26.547Z,78.91
2017-12-15T02:35:26.559Z,79.28
2017-12-15T02:36:26.576Z,79.19
2017-12-15T02:37:26.578Z,79.19
2017-12-15T02:38:26.709Z,79.19
2017-12-15T02:39:26.601Z,78.91
2017-12-15T02:40:26.616Z,79.1
2017-12-15T02:41:26.620Z,79.38
2017-12-15T02:42:26.730Z,79.28
2017-12-15T02:43:26.654Z,79.47
2017-12-15T02:44:26.653Z,78.91
2017-12-15T02:45:26.660Z,79.57
2017-12-15T02:46:26.674Z,79
2017-12-15T02:47:26.690Z,79.19
2017-12-15T02:48:26.693Z,79.38
2017-12-15T02:49:26.703Z,79.57
2017-12-15T02:50:26.437Z,79.38
2017-12-15T02:51:26.724Z,78.91
2017-12-15T02:52:26.749Z,79
2017-12-15T02:53:26.470Z,78.91
2017-12-15T02:54:26.759Z,79.1
2017-12-15T02:55:26.775Z,79.28
2017-12-15T02:56:26.782Z,79.1
2017-12-15T02:57:26.788Z,79.1
2017-12-15T02:58:26.803Z,79.19
2017-12-15T02:59:26.812Z,79.28
2017-12-15T03:00:26.821Z,79.38
2017-12-15T03:01:26.839Z,79.28
2017-12-15T03:02:26.895Z,79.19
2017-12-15T03:03:26.621Z,79
2017-12-15T03:04:26.586Z,79.28
2017-12-15T03:05:26.880Z,79.28
2017-12-15T03:06:26.882Z,79.38
2017-12-15T03:07:26.897Z,78.91
2017-12-15T03:08:26.904Z,79.47
2017-12-15T03:09:26.921Z,79.28
2017-12-15T03:10:26.925Z,79.38
2017-12-15T03:11:26.936Z,79.28
2017-12-15T03:12:26.998Z,78.91
2017-12-15T03:13:26.963Z,79.57
2017-12-15T03:14:26.967Z,79.28
2017-12-15T03:15:26.983Z,78.91
2017-12-15T03:16:26.712Z,79.28
2017-12-15T03:17:27.001Z,79.47
2017-12-15T03:18:27.009Z,79.1
2017-12-15T03:19:27.020Z,79.19
2017-12-15T03:20:27.030Z,79.1
2017-12-15T03:21:27.041Z,79.1
2017-12-15T03:22:27.052Z,79.38
2017-12-15T03:23:26.788Z,79.19
2017-12-15T03:24:26.798Z,79.19
2017-12-15T03:25:27.093Z,79.38
2017-12-15T03:26:26.816Z,79.38
2017-12-15T03:27:27.106Z,79.19
2017-12-15T03:28:27.117Z,79.47
2017-12-15T03:29:26.848Z,79.28
2017-12-15T03:30:27.143Z,79.19
2017-12-15T03:31:27.149Z,79.47
2017-12-15T03:32:27.160Z,79.38
2017-12-15T03:33:26.890Z,79.28
2017-12-15T03:34:27.178Z,79
2017-12-15T03:35:26.912Z,79.57
2017-12-15T03:36:27.199Z,79.47
2017-12-15T03:37:27.209Z,79.57
2017-12-15T03:38:27.231Z,79
2017-12-15T03:39:27.230Z,79.38
2017-12-15T03:40:27.244Z,79.28
2017-12-15T03:41:27.267Z,79.28
2017-12-15T03:42:27.263Z,79.38
2017-12-15T03:43:27.274Z,79.28
2017-12-15T03:44:27.307Z,79.38
2017-12-15T03:45:27.018Z,79.28
2017-12-15T03:46:27.307Z,79.66
2017-12-15T03:47:27.313Z,79.38
2017-12-15T03:48:27.049Z,79.47
2017-12-15T03:49:27.060Z,79.57
2017-12-15T03:50:27.347Z,79.38
2017-12-15T03:51:27.355Z,79.57
2017-12-15T03:52:27.090Z,79.38
2017-12-15T03:53:27.380Z,79.38
2017-12-15T03:54:27.389Z,79.19
2017-12-15T03:55:27.124Z,79.28
2017-12-15T03:56:27.418Z,79.38
2017-12-15T03:57:27.423Z,79.76
2017-12-15T03:58:27.431Z,79.57
2017-12-15T03:59:27.443Z,79.19
2017-12-15T04:00:27.452Z,79.47
2017-12-15T04:01:27.461Z,79.38
2017-12-15T04:02:27.481Z,79.66
2017-12-15T04:03:27.257Z,79.85
2017-12-15T04:04:27.495Z,79.85
2017-12-15T04:05:27.509Z,79.95
2017-12-15T04:06:27.511Z,79.76
2017-12-15T04:07:27.253Z,79.85
2017-12-15T04:08:27.538Z,79.38
2017-12-15T04:09:27.269Z,79.85
2017-12-15T04:10:27.556Z,79.76
2017-12-15T04:11:27.569Z,79.76
2017-12-15T04:12:27.580Z,79.47
2017-12-15T04:13:27.413Z,79.85
2017-12-15T04:14:27.598Z,79.85
2017-12-15T04:15:27.618Z,79.95
2017-12-15T04:16:27.624Z,79.95
2017-12-15T04:17:27.633Z,79.85
2017-12-15T04:18:27.646Z,79.85
2017-12-15T04:19:27.654Z,80.04
2017-12-15T04:20:27.663Z,79.57
2017-12-15T04:21:27.675Z,79.57
2017-12-15T04:22:27.682Z,79.85
2017-12-15T04:23:27.698Z,79.66
2017-12-15T04:24:27.707Z,79.57
2017-12-15T04:25:27.437Z,79.57
2017-12-15T04:26:27.724Z,79.85
2017-12-15T04:27:27.737Z,79.47
2017-12-15T04:28:27.743Z,79.95
2017-12-15T04:29:27.758Z,79.95
2017-12-15T04:30:27.769Z,79.85
2017-12-15T04:31:27.776Z,80.14
2017-12-15T04:32:27.788Z,79.57
2017-12-15T04:33:27.850Z,79.66
2017-12-15T04:34:27.810Z,79.85
2017-12-15T04:35:27.820Z,80.04
2017-12-15T04:36:27.829Z,79.85
2017-12-15T04:37:27.845Z,79.57
2017-12-15T04:38:27.857Z,79.66
2017-12-15T04:39:27.861Z,79.66
2017-12-15T04:40:27.872Z,80.04
2017-12-15T04:41:27.949Z,79.95
2017-12-15T04:42:27.892Z,79.38
2017-12-15T04:43:27.903Z,79.95
2017-12-15T04:44:27.914Z,80.14
2017-12-15T04:45:27.935Z,79.47
2017-12-15T04:46:27.947Z,79.38
2017-12-15T04:47:27.944Z,79.57
2017-12-15T04:48:27.958Z,80.04
2017-12-15T04:49:28.008Z,79.85
2017-12-15T04:50:27.974Z,79.95
2017-12-15T04:51:27.988Z,79.57
2017-12-15T04:52:28.001Z,79.57
2017-12-15T04:53:27.781Z,79.95
2017-12-15T04:54:27.743Z,79.95
2017-12-15T04:55:28.028Z,79.85
2017-12-15T04:56:27.765Z,79.95
2017-12-15T04:57:28.051Z,79.85
2017-12-15T04:58:28.112Z,79.57
2017-12-15T04:59:28.072Z,79.95
2017-12-15T05:00:27.806Z,79.85
2017-12-15T05:01:28.091Z,79.95
2017-12-15T05:02:28.103Z,80.04
2017-12-15T05:03:27.837Z,79.85
2017-12-15T05:04:28.127Z,79.57
2017-12-15T05:05:28.132Z,79.66
2017-12-15T05:06:27.870Z,79.85
2017-12-15T05:07:27.881Z,79.85
2017-12-15T05:08:27.892Z,79.85
2017-12-15T05:09:28.177Z,79.66
2017-12-15T05:10:28.187Z,79.47
2017-12-15T05:11:27.931Z,79.95
2017-12-15T05:12:27.933Z,80.14
2017-12-15T05:13:28.270Z,79.47
2017-12-15T05:14:28.233Z,79.95
2017-12-15T05:15:28.240Z,79.47
2017-12-15T05:16:28.249Z,79.57
2017-12-15T05:17:28.259Z,80.14
2017-12-15T05:18:27.996Z,80.04
2017-12-15T05:19:28.285Z,79.95
2017-12-15T05:20:28.298Z,80.04
2017-12-15T05:21:28.027Z,79.95
2017-12-15T05:22:28.316Z,79.76
2017-12-15T05:23:28.048Z,79.85
2017-12-15T05:24:28.338Z,80.04
2017-12-15T05:25:28.356Z,79.95
2017-12-15T05:26:28.361Z,79.47
2017-12-15T05:27:28.369Z,79.57
2017-12-15T05:28:28.468Z,80.04
2017-12-15T05:29:28.392Z,79.57
2017-12-15T05:30:28.399Z,79.57
2017-12-15T05:31:28.409Z,80.04
2017-12-15T05:32:28.145Z,79.57
2017-12-15T05:33:28.432Z,79.85
2017-12-15T05:34:28.446Z,79.85
2017-12-15T05:35:28.455Z,79.47
2017-12-15T05:36:28.467Z,79.47
2017-12-15T05:37:28.472Z,79.57
2017-12-15T05:38:28.536Z,79.52
2017-12-15T05:39:28.495Z,79.95
2017-12-15T05:40:28.508Z,79.95
2017-12-15T05:41:28.521Z,80.04
2017-12-15T05:42:28.528Z,80.04
2017-12-15T05:43:28.544Z,79.95
2017-12-15T05:44:28.554Z,79.47
2017-12-15T05:45:28.560Z,79.76
2017-12-15T05:46:28.296Z,79.95
2017-12-15T05:47:28.590Z,79.76
2017-12-15T05:48:28.593Z,79.66
2017-12-15T05:52:17.438Z,79.66
2017-12-15T05:53:17.721Z,80.24
2017-12-15T05:54:17.780Z,80.04
2017-12-15T05:55:17.471Z,80.43
2017-12-15T05:56:17.758Z,80.33
2017-12-15T05:57:17.766Z,80.24
2017-12-15T05:58:17.775Z,80.43
2017-12-15T05:59:17.790Z,80.37
2017-12-15T06:00:17.798Z,80.27
2017-12-15T06:01:17.808Z,80.46
2017-12-15T06:02:17.543Z,80.43
2017-12-15T06:03:17.827Z,80.46
2017-12-15T06:04:17.843Z,80.08
2017-12-15T06:05:17.850Z,80.46
2017-12-15T06:06:17.858Z,80.65
2017-12-15T06:07:17.870Z,80.46
2017-12-15T06:08:17.885Z,80.18
2017-12-15T06:09:17.890Z,80.37
2017-12-15T06:10:17.904Z,80.56
2017-12-15T06:11:17.913Z,80.56
2017-12-15T06:12:17.925Z,80.56
2017-12-15T06:13:17.659Z,80.56
2017-12-15T06:14:17.669Z,80.84
2017-12-15T06:15:17.958Z,80.84
2017-12-15T06:16:17.965Z,80.94
2017-12-15T06:17:17.980Z,80.75
2017-12-15T06:18:17.711Z,80.75
2017-12-15T06:19:17.723Z,80.65
2017-12-15T06:20:18.009Z,81.04
2017-12-15T06:21:18.020Z,80.65
2017-12-15T06:22:18.032Z,80.75
2017-12-15T06:23:18.044Z,80.75
2017-12-15T06:24:18.059Z,80.94
2017-12-15T06:25:18.065Z,80.94
2017-12-15T06:26:18.081Z,80.84
2017-12-15T06:27:18.085Z,80.56
2017-12-15T06:28:18.094Z,80.75
2017-12-15T06:29:17.830Z,80.56
2017-12-15T06:30:18.180Z,80.46
2017-12-15T06:31:18.133Z,80.08
2017-12-15T06:32:18.139Z,79.71
2017-12-15T06:33:18.150Z,80.08
2017-12-15T06:34:18.163Z,79.71
2017-12-15T06:35:18.171Z,79.71
2017-12-15T06:36:18.182Z,80.08
2017-12-15T06:37:18.198Z,79.52
2017-12-15T06:38:17.930Z,79.61
2017-12-15T06:39:17.937Z,79.61
2017-12-15T06:40:18.224Z,79.42
2017-12-15T06:41:18.253Z,79.71
2017-12-15T06:42:17.974Z,79.23
2017-12-15T06:43:18.260Z,79.47
2017-12-15T06:44:18.270Z,79.71
2017-12-15T06:45:18.052Z,79.33
2017-12-15T06:46:18.291Z,79.47
2017-12-15T06:47:18.309Z,79.23
2017-12-15T06:48:18.317Z,79.19
2017-12-15T06:49:18.322Z,79.33
2017-12-15T06:50:18.365Z,79.19
2017-12-15T06:51:18.342Z,79.76
2017-12-15T06:52:18.082Z,80.04
2017-12-15T06:53:18.364Z,79.85
2017-12-15T06:54:18.375Z,80.33
2017-12-15T06:55:18.440Z,79.47
2017-12-15T06:56:18.399Z,79.66
2017-12-15T06:57:18.411Z,80.14
2017-12-15T06:58:18.417Z,80.14
2017-12-15T06:59:18.158Z,80.24
2017-12-15T07:00:18.440Z,80.24
2017-12-15T07:01:18.177Z,80.18
2017-12-15T07:02:18.472Z,80.75
2017-12-15T07:03:18.472Z,80.56
2017-12-15T07:04:18.488Z,80.56
2017-12-15T07:05:18.498Z,80.65
2017-12-15T07:06:18.234Z,80.75
2017-12-15T07:07:18.240Z,80.75
2017-12-15T07:08:18.528Z,80.94
2017-12-15T07:09:18.539Z,80.75
2017-12-15T07:10:18.270Z,80.65
2017-12-15T07:11:18.559Z,80.65
2017-12-15T07:12:18.567Z,80.94
2017-12-15T07:13:18.584Z,80.75
2017-12-15T07:14:18.315Z,80.75
2017-12-15T07:15:18.602Z,80.75
2017-12-15T07:16:18.610Z,80.56
2017-12-15T07:17:18.621Z,80.65
2017-12-15T07:18:18.636Z,80.65
2017-12-15T07:19:18.646Z,80.65
2017-12-15T07:20:18.654Z,80.65
2017-12-15T07:21:18.666Z,80.65
2017-12-15T07:22:18.676Z,80.84
2017-12-15T07:23:18.689Z,80.84
2017-12-15T07:24:18.423Z,81.04
2017-12-15T07:25:31.507Z,80.65
2017-12-15T07:26:18.470Z,80.75
2017-12-15T07:27:18.733Z,80.84
2017-12-15T07:28:18.742Z,80.46
2017-12-15T07:29:18.751Z,80.94
2017-12-15T07:30:18.487Z,80.65
2017-12-15T07:31:18.776Z,80.65
2017-12-15T07:32:18.795Z,81.04
2017-12-15T07:33:18.799Z,80.84
2017-12-15T07:34:18.814Z,80.56
2017-12-15T07:35:18.818Z,80.75
2017-12-15T07:36:18.829Z,80.37
2017-12-15T07:37:18.843Z,80.18
2017-12-15T07:38:18.575Z,80.75
2017-12-15T07:39:18.585Z,80.37
2017-12-15T07:40:18.596Z,79.99
2017-12-15T07:41:18.883Z,80.18
2017-12-15T07:42:18.893Z,80.37
2017-12-15T07:43:18.904Z,80.46
2017-12-15T07:44:18.922Z,80.18
2017-12-15T07:45:18.951Z,80.46
2017-12-15T07:46:18.937Z,80.46
2017-12-15T07:47:18.949Z,80.46
2017-12-15T07:48:18.959Z,80.37
2017-12-15T07:49:18.971Z,79.99
2017-12-15T07:50:18.980Z,79.8
2017-12-15T07:51:18.991Z,79.61
2017-12-15T07:52:19.005Z,79.61
2017-12-15T07:53:19.014Z,79.71
2017-12-15T07:54:19.033Z,79.71
2017-12-15T07:55:18.766Z,79.42
2017-12-15T07:56:18.772Z,80.46
2017-12-15T07:57:19.058Z,79.71
2017-12-15T07:58:19.070Z,79.61
2017-12-15T07:59:19.083Z,79.8
2017-12-15T08:00:19.089Z,79.71
2017-12-15T08:01:18.821Z,79.8
2017-12-15T08:02:18.834Z,79.9
2017-12-15T08:03:18.844Z,79.8
2017-12-15T08:04:19.128Z,79.8
2017-12-15T08:05:19.147Z,79.71
2017-12-15T08:06:19.156Z,79.61
2017-12-15T08:07:19.165Z,79.8
2017-12-15T08:08:19.175Z,79.99
2017-12-15T08:09:19.188Z,79.71
2017-12-15T08:10:18.922Z,80.08
2017-12-15T08:11:19.209Z,79.42
2017-12-15T08:12:18.999Z,79.9
2017-12-15T08:13:19.238Z,79.99
2017-12-15T08:14:19.244Z,79.52
2017-12-15T08:15:19.256Z,79.61
2017-12-15T08:16:18.986Z,79.99
2017-12-15T08:17:19.273Z,79.8
2017-12-15T08:18:19.283Z,79.8
2017-12-15T08:19:19.300Z,79.9
2017-12-15T08:20:19.347Z,79.99
2017-12-15T08:21:19.316Z,79.42
2017-12-15T08:22:19.335Z,79.99
2017-12-15T08:23:19.338Z,79.99
2017-12-15T08:24:19.348Z,79.61
2017-12-15T08:25:19.365Z,79.71
2017-12-15T08:26:19.369Z,79.99
2017-12-15T08:27:19.401Z,79.99
2017-12-15T08:28:19.393Z,79.99
2017-12-15T08:29:19.404Z,79.9
2017-12-15T08:30:19.420Z,79.8
2017-12-15T08:31:19.472Z,79.42
2017-12-15T08:32:19.160Z,80.08
2017-12-15T08:33:19.445Z,80.18
2017-12-15T08:34:19.460Z,79.61
2017-12-15T08:35:19.469Z,79.8
2017-12-15T08:36:19.478Z,80.08
2017-12-15T08:37:19.490Z,80.08
2017-12-15T08:38:19.222Z,79.8
2017-12-15T08:39:19.512Z,79.8
2017-12-15T08:40:19.524Z,79.71
2017-12-15T08:41:19.534Z,79.8
2017-12-15T08:42:19.543Z,79.71
2017-12-15T08:43:19.553Z,79.8
2017-12-15T08:44:19.572Z,79.99
2017-12-15T08:45:19.297Z,80.08
2017-12-15T08:46:19.587Z,80.18
2017-12-15T08:47:19.598Z,80.27
2017-12-15T08:48:19.607Z,79.99
2017-12-15T08:49:19.625Z,79.71
2017-12-15T08:50:19.630Z,79.9
2017-12-15T08:51:19.643Z,79.8
2017-12-15T08:52:19.377Z,79.8
2017-12-15T08:53:19.384Z,79.71
2017-12-15T08:54:19.671Z,79.71
2017-12-15T08:55:19.684Z,79.61
2017-12-15T08:56:19.694Z,79.71
2017-12-15T08:57:19.431Z,80.08
2017-12-15T08:58:19.444Z,80.37
2017-12-15T08:59:19.726Z,80.37
2017-12-15T09:00:19.740Z,80.08
2017-12-15T09:01:19.746Z,80.37
2017-12-15T09:02:19.583Z,80.37
2017-12-15T09:03:19.496Z,80.65
2017-12-15T09:04:19.784Z,80.46
2017-12-15T09:05:19.517Z,80.37
2017-12-15T09:06:19.837Z,80.37
2017-12-15T09:07:19.542Z,80.37
2017-12-15T09:08:19.549Z,80.46
2017-12-15T09:09:19.835Z,80.37
2017-12-15T09:10:19.849Z,80.18
2017-12-15T09:11:19.579Z,80.37
2017-12-15T09:12:19.594Z,80.18
2017-12-15T09:13:19.880Z,80.46
2017-12-15T09:14:19.894Z,80.46
2017-12-15T09:15:19.918Z,80.56
2017-12-15T09:16:19.635Z,80.46
2017-12-15T09:17:19.921Z,80.75
2017-12-15T09:18:19.936Z,80.46
2017-12-15T09:19:19.671Z,80.18
2017-12-15T09:20:19.957Z,79.71
2017-12-15T09:21:19.966Z,79.71
2017-12-15T09:22:19.701Z,80.46
2017-12-15T09:23:19.990Z,80.18
2017-12-15T09:24:19.724Z,80.37
2017-12-15T09:25:20.012Z,80.27
2017-12-15T09:26:20.026Z,80.27
2017-12-15T09:27:19.826Z,80.46
2017-12-15T09:28:19.768Z,79.9
2017-12-15T09:29:20.056Z,80.08
2017-12-15T09:30:20.140Z,80.37
2017-12-15T09:31:20.074Z,80.46
2017-12-15T09:32:19.814Z,80.18
2017-12-15T09:33:19.823Z,80.46
2017-12-15T09:34:19.835Z,80.46
2017-12-15T09:35:19.845Z,80.27
2017-12-15T09:36:20.132Z,80.27
2017-12-15T09:37:20.144Z,80.46
2017-12-15T09:38:20.157Z,80.69
2017-12-15T09:39:20.164Z,80.69
2017-12-15T09:40:20.176Z,80.79
2017-12-15T09:41:20.189Z,80.6
2017-12-15T09:42:20.198Z,80.6
2017-12-15T09:43:20.258Z,80.6
2017-12-15T09:44:19.952Z,80.79
2017-12-15T09:45:20.003Z,80.79
2017-12-15T09:46:20.302Z,80.41
2017-12-15T09:47:20.255Z,79.74
2017-12-15T09:48:20.316Z,79.94
2017-12-15T09:49:20.274Z,79.94
2017-12-15T09:50:20.294Z,79.74
2017-12-15T09:51:20.298Z,79.74
2017-12-15T09:52:20.048Z,79.84
2017-12-15T09:53:20.323Z,79.94
2017-12-15T09:54:20.333Z,79.94
2017-12-15T09:55:20.065Z,80.13
2017-12-15T09:56:20.361Z,80.13
2017-12-15T09:57:20.088Z,80.03
2017-12-15T09:58:20.377Z,80.03
2017-12-15T09:59:20.390Z,80.13
2017-12-15T10:00:20.405Z,79.65
2017-12-15T10:01:20.468Z,79.74
2017-12-15T10:02:20.423Z,80.13
2017-12-15T10:03:20.481Z,79.55
2017-12-15T10:04:20.446Z,80.03
2017-12-15T10:05:20.180Z,80.13
2017-12-15T10:06:20.466Z,79.65
2017-12-15T10:07:20.204Z,80.13
2017-12-15T10:08:20.490Z,79.84
2017-12-15T10:09:20.225Z,80.13
2017-12-15T10:10:20.512Z,79.65
2017-12-15T10:11:20.248Z,80.13
2017-12-15T10:12:20.534Z,79.74
2017-12-15T10:13:20.547Z,80.13
2017-12-15T10:14:20.558Z,80.13
2017-12-15T10:15:20.573Z,79.65
2017-12-15T10:16:20.579Z,79.74
2017-12-15T10:17:20.594Z,80.03
2017-12-15T10:18:20.604Z,79.55
2017-12-15T10:19:20.617Z,79.55
2017-12-15T10:20:20.626Z,80.13
2017-12-15T10:21:20.637Z,80.13
2017-12-15T10:22:20.647Z,79.84
2017-12-15T10:23:20.659Z,80.13
2017-12-15T10:24:20.674Z,79.55
2017-12-15T10:25:20.688Z,79.94
2017-12-15T10:26:20.418Z,79.84
2017-12-15T10:27:20.759Z,80.03
2017-12-15T10:28:20.440Z,80.03
2017-12-15T10:29:20.737Z,79.55
2017-12-15T10:30:20.463Z,79.55
2017-12-15T10:31:20.751Z,80.03
2017-12-15T10:32:20.765Z,79.84
2017-12-15T10:33:20.772Z,80.03
2017-12-15T10:34:20.786Z,80.22
2017-12-15T10:35:20.797Z,79.94
2017-12-15T10:36:20.533Z,79.84
2017-12-15T10:37:20.820Z,79.94
2017-12-15T10:38:20.852Z,79.74
2017-12-15T10:39:20.842Z,79.88
2017-12-15T10:40:20.580Z,79.84
2017-12-15T10:41:20.864Z,80.22
2017-12-15T10:42:20.984Z,79.6
2017-12-15T10:43:20.663Z,79.69
2017-12-15T10:44:20.638Z,79.79
2017-12-15T10:45:20.916Z,79.41
2017-12-15T10:46:20.925Z,79.5
2017-12-15T10:47:20.933Z,79.5
2017-12-15T10:48:20.946Z,79.6
2017-12-15T10:49:20.959Z,79.5
2017-12-15T10:50:20.970Z,79.6
2017-12-15T10:51:20.980Z,79.41
2017-12-15T10:52:20.722Z,79.41
2017-12-15T10:53:21.009Z,79.22
2017-12-15T10:54:21.018Z,78.93
2017-12-15T10:55:21.034Z,79.03
2017-12-15T10:56:21.048Z,78.93
2017-12-15T10:57:20.775Z,78.83
2017-12-15T10:58:20.790Z,78.93
2017-12-15T10:59:21.076Z,79.03
2017-12-15T11:00:21.089Z,79.03
2017-12-15T11:01:21.101Z,78.93
2017-12-15T11:02:21.114Z,78.83
2017-12-15T11:03:21.122Z,78.74
2017-12-15T11:04:20.857Z,78.83
2017-12-15T11:05:21.144Z,79.03
2017-12-15T11:06:21.161Z,78.93
2017-12-15T11:07:21.169Z,78.93
2017-12-15T11:08:20.906Z,79.03
2017-12-15T11:09:21.192Z,78.83
2017-12-15T11:10:20.927Z,78.74
2017-12-15T11:11:20.940Z,79.22
2017-12-15T11:12:21.229Z,79.03
2017-12-15T11:13:21.238Z,78.74
2017-12-15T11:14:21.257Z,79.22
2017-12-15T11:15:21.266Z,79.03
2017-12-15T11:16:21.274Z,78.74
2017-12-15T11:17:21.302Z,78.83
2017-12-15T11:18:21.021Z,78.93
2017-12-15T11:19:21.311Z,79.12
2017-12-15T11:20:21.327Z,79.22
2017-12-15T11:21:21.337Z,79.22
2017-12-15T11:22:21.068Z,78.83
2017-12-15T11:23:21.357Z,78.64
2017-12-15T11:24:21.373Z,78.83
2017-12-15T11:25:21.383Z,78.55
2017-12-15T11:26:21.400Z,78.83
2017-12-15T11:27:21.410Z,78.27
2017-12-15T11:28:21.420Z,78.45
2017-12-15T11:29:21.429Z,78.08
2017-12-15T11:30:21.164Z,78.08
2017-12-15T11:31:21.454Z,78.08
2017-12-15T11:32:21.464Z,78.17
2017-12-15T11:33:21.199Z,78.36
2017-12-15T11:34:21.537Z,78.45
2017-12-15T11:35:21.497Z,78.27
2017-12-15T11:36:21.514Z,78.27
2017-12-15T11:37:21.522Z,77.98
2017-12-15T11:38:21.535Z,77.89
2017-12-15T11:39:21.547Z,77.7
2017-12-15T11:40:21.565Z,77.79
2017-12-15T11:41:21.297Z,78.08
2017-12-15T11:42:21.592Z,77.89
2017-12-15T11:43:21.599Z,77.89
2017-12-15T11:44:21.659Z,77.98
2017-12-15T11:45:21.345Z,77.41
2017-12-15T11:46:21.631Z,77.31
2017-12-15T11:47:21.644Z,77.31
2017-12-15T11:48:21.379Z,76.75
2017-12-15T11:49:21.392Z,76.84
2017-12-15T11:50:21.404Z,77.03
2017-12-15T11:51:21.690Z,76.75
2017-12-15T11:52:21.704Z,76.75
2017-12-15T11:53:21.713Z,76.75
2017-12-15T11:54:21.455Z,76.93
2017-12-15T11:55:21.737Z,77.12
2017-12-15T11:56:21.758Z,76.84
2017-12-15T11:57:21.762Z,76.65
2017-12-15T11:58:21.779Z,76.93
2017-12-15T11:59:21.839Z,76.84
2017-12-15T12:00:21.800Z,77.12
2017-12-15T12:01:21.812Z,76.93
2017-12-15T12:02:21.838Z,77.22
2017-12-15T12:03:21.835Z,77.51
2017-12-15T12:04:21.849Z,76.93
2017-12-15T12:05:21.584Z,76.75
2017-12-15T12:06:21.874Z,76.93
2017-12-15T12:07:21.891Z,77.12
2017-12-15T12:08:21.899Z,77.31
2017-12-15T12:09:21.638Z,77.31
2017-12-15T12:10:21.922Z,76.75
2017-12-15T12:11:21.935Z,76.56
2017-12-15T12:12:21.944Z,76.84
2017-12-15T12:13:21.694Z,76.75
2017-12-15T12:14:21.975Z,76.84
2017-12-15T12:15:21.988Z,76.93
2017-12-15T12:16:21.997Z,76.93
2017-12-15T12:17:21.732Z,76.69
2017-12-15T12:18:22.020Z,76.65
2017-12-15T12:19:22.030Z,77.07
2017-12-15T12:20:21.770Z,77.36
2017-12-15T12:21:22.057Z,77.26
2017-12-15T12:22:22.066Z,77.12
2017-12-15T12:23:22.089Z,76.88
2017-12-15T12:24:22.091Z,76.59
2017-12-15T12:25:22.115Z,76.69
2017-12-15T12:26:22.114Z,76.5
2017-12-15T12:27:22.130Z,76.69
2017-12-15T12:28:21.863Z,76.78
2017-12-15T12:29:22.154Z,76.78
2017-12-15T12:30:22.167Z,76.5
2017-12-15T12:31:22.178Z,76.59
2017-12-15T12:32:22.193Z,76.59
2017-12-15T12:33:22.202Z,76.78
2017-12-15T12:34:22.214Z,76.5
2017-12-15T12:35:22.225Z,76.78
2017-12-15T12:36:22.239Z,75.74
2017-12-15T12:37:21.975Z,76.31
2017-12-15T12:38:22.273Z,76.31
2017-12-15T12:39:22.276Z,76.21
2017-12-15T12:40:22.292Z,75.93
2017-12-15T12:41:22.300Z,76.5
2017-12-15T12:42:22.313Z,76.5
2017-12-15T12:43:22.325Z,76.5
2017-12-15T12:44:22.346Z,76.5
2017-12-15T12:45:22.075Z,76.31
2017-12-15T12:46:22.364Z,76.31
2017-12-15T12:47:22.379Z,76.5
2017-12-15T12:48:22.389Z,76.5
2017-12-15T12:49:22.123Z,75.84
2017-12-15T12:50:22.134Z,76.5
2017-12-15T12:51:22.149Z,76.59
2017-12-15T12:52:22.163Z,75.74
2017-12-15T12:53:22.457Z,76.21
2017-12-15T12:54:22.464Z,76.03
2017-12-15T12:55:22.474Z,76.21
2017-12-15T12:56:22.211Z,76.21
2017-12-15T12:57:22.222Z,75.93
2017-12-15T12:58:22.514Z,76.21